Time;durP1;ratioP1;P1;durP2;ratioP2;P2;SDS_P1;SDS_P2;PMS_P1;PMS_P2;Temp;Humidity;BMP_temperature;BMP_pressure;BME280_temperature;BME280_humidity;BME280_pressure;Samples;Min_cycle;Max_cycle;Signal;HPM_P1;HPM_P2
2021/11/26 00:02:23;;;;;;;;;14.75;9.50;;;;;8.39;100.00;100855.53;5017316;28;45441;-77
2021/11/26 00:04:49;;;;;;;;;16.75;12.25;;;;;8.37;100.00;100850.31;5016754;28;45402;-77
2021/11/26 00:07:18;;;;;;;;;20.00;16.00;;;;;8.35;100.00;100842.50;5016754;28;45798;-77
2021/11/26 00:09:44;;;;;;;;;8.50;8.50;;;;;8.41;100.00;100843.63;5016623;28;45336;-78
2021/11/26 00:12:10;;;;;;;;;9.25;8.00;;;;;8.43;100.00;100840.31;5017276;28;45550;-78
2021/11/26 00:14:43;;;;;;;;;14.75;9.00;;;;;8.31;100.00;100819.91;5016907;28;46216;-78
2021/11/26 00:17:16;;;;;;;;;8.75;8.50;;;;;8.38;100.00;100826.28;5017042;28;45872;-79
2021/11/26 00:19:42;;;;;;;;;12.25;10.25;;;;;8.18;100.00;100794.25;5032356;28;45265;-78
2021/11/26 00:22:07;;;;;;;;;13.25;10.50;;;;;8.18;100.00;100804.56;5016817;28;45166;-78
2021/11/26 00:24:33;;;;;;;;;9.50;7.50;;;;;8.30;100.00;100823.28;5016421;28;45472;-80
2021/11/26 00:26:59;;;;;;;;;11.00;9.00;;;;;8.05;100.00;100788.41;5032608;28;45478;-83
2021/11/26 00:29:25;;;;;;;;;9.00;5.00;;;;;8.19;100.00;100816.66;5025220;28;45441;-78
2021/11/26 00:31:50;;;;;;;;;9.00;7.75;;;;;8.08;100.00;100810.03;5020755;28;45450;-78
2021/11/26 00:34:16;;;;;;;;;10.50;7.25;;;;;8.20;100.00;100829.66;5017014;28;46087;-78
2021/11/26 00:36:41;;;;;;;;;3.75;3.75;;;;;8.15;100.00;100820.78;5017868;28;45420;-78
2021/11/26 00:39:07;;;;;;;;;8.50;6.75;;;;;7.90;100.00;100782.44;5016742;28;45418;-80
2021/11/26 00:41:34;;;;;;;;;11.00;9.50;;;;;8.10;100.00;100816.16;5016619;28;45570;-79
2021/11/26 00:44:00;;;;;;;;;9.00;9.00;;;;;8.07;100.00;100816.88;5016155;28;46775;-78
2021/11/26 00:46:25;;;;;;;;;8.00;7.50;;;;;8.02;100.00;100810.56;5016248;28;45899;-78
2021/11/26 00:48:51;;;;;;;;;9.75;9.50;;;;;8.04;100.00;100807.28;5016293;28;45359;-78
2021/11/26 00:51:17;;;;;;;;;7.50;6.00;;;;;7.94;100.00;100784.38;5016516;28;45324;-79
2021/11/26 00:53:42;;;;;;;;;13.25;8.50;;;;;7.92;100.00;100780.84;5014897;28;46167;-79
2021/11/26 00:56:08;;;;;;;;;11.75;10.25;;;;;8.10;100.00;100805.84;5016247;28;45496;-81
2021/11/26 00:58:34;;;;;;;;;8.00;7.00;;;;;8.03;100.00;100802.94;5016355;28;45377;-79
2021/11/26 01:00:59;;;;;;;;;11.25;9.00;;;;;7.87;100.00;100777.09;5016205;28;45662;-79
2021/11/26 01:03:25;;;;;;;;;15.75;11.75;;;;;7.96;100.00;100795.66;5015952;28;45407;-80
2021/11/26 01:05:51;;;;;;;;;14.25;10.75;;;;;7.96;100.00;100800.81;5015895;28;45297;-78
2021/11/26 01:08:18;;;;;;;;;13.75;11.00;;;;;7.64;100.00;100745.78;5001061;28;46069;-78
2021/11/26 01:10:46;;;;;;;;;8.25;8.25;;;;;7.98;100.00;100811.22;5022501;28;45267;-80
2021/11/26 01:13:11;;;;;;;;;13.25;8.00;;;;;7.89;100.00;100809.03;5020879;28;45482;-78
2021/11/26 01:15:39;;;;;;;;;11.25;11.25;;;;;7.87;100.00;100806.38;5016273;28;45323;-79
2021/11/26 01:18:06;;;;;;;;;16.25;14.00;;;;;7.85;100.00;100800.22;5015797;28;45430;-79
2021/11/26 01:20:35;;;;;;;;;10.00;8.25;;;;;7.82;100.00;100787.16;5016242;28;45481;-82
2021/11/26 01:23:01;;;;;;;;;11.00;8.25;;;;;7.62;100.00;100762.84;5016011;28;46463;-79
2021/11/26 01:25:27;;;;;;;;;11.25;8.25;;;;;7.82;100.00;100787.16;5015801;28;45172;-79
2021/11/26 01:27:54;;;;;;;;;11.25;9.50;;;;;7.73;100.00;100781.50;5016239;28;45360;-79
2021/11/26 01:30:34;;;;;;;;;8.25;7.25;;;;;7.49;100.00;100734.66;5016280;28;45470;-80
2021/11/26 01:33:05;;;;;;;;;10.50;8.25;;;;;7.76;100.00;100781.69;5015602;28;45390;-79
2021/11/26 01:35:30;;;;;;;;;9.00;7.50;;;;;7.73;100.00;100789.25;5015858;28;45795;-79
2021/11/26 01:37:56;;;;;;;;;7.50;7.50;;;;;7.57;100.00;100744.56;5020349;28;45498;-87
2021/11/26 01:40:22;;;;;;;;;10.00;8.75;;;;;7.72;100.00;100762.56;5018094;28;45432;-79
2021/11/26 01:42:50;;;;;;;;;8.25;8.25;;;;;7.62;100.00;100737.09;5018252;28;45518;-77
2021/11/26 01:45:17;;;;;;;;;8.75;8.00;;;;;7.74;100.00;100755.81;5024758;28;45347;-77
2021/11/26 01:47:43;;;;;;;;;11.00;9.00;;;;;7.72;100.00;100749.69;5016653;28;45328;-78
2021/11/26 01:50:11;;;;;;;;;9.75;9.00;;;;;7.80;100.00;100746.66;5021141;28;45679;-79
2021/11/26 01:52:37;;;;;;;;;9.00;8.50;;;;;7.78;100.00;100732.78;5022030;28;46275;-79
2021/11/26 01:55:05;;;;;;;;;9.50;8.00;;;;;7.69;100.00;100723.75;5015549;28;45937;-78
2021/11/26 01:57:31;;;;;;;;;9.25;7.75;;;;;7.78;100.00;100743.97;5016880;28;45345;-79
2021/11/26 01:59:56;;;;;;;;;9.00;6.25;;;;;7.64;100.00;100714.88;5015638;28;45240;-79
2021/11/26 02:02:22;;;;;;;;;9.00;9.00;;;;;7.77;100.00;100731.00;5015865;28;45974;-80
2021/11/26 02:04:48;;;;;;;;;7.00;6.75;;;;;7.68;100.00;100708.19;5018532;28;45252;-79
2021/11/26 02:07:14;;;;;;;;;10.00;8.00;;;;;7.65;100.00;100702.91;5018995;28;45389;-78
2021/11/26 02:09:40;;;;;;;;;8.00;8.00;;;;;7.76;100.00;100725.00;5019712;28;45382;-81
2021/11/26 02:12:07;;;;;;;;;11.25;7.75;;;;;7.72;100.00;100721.34;5018578;28;45421;-80
2021/11/26 02:14:33;;;;;;;;;13.00;10.75;;;;;7.68;100.00;100705.63;5018666;28;46028;-79
2021/11/26 02:16:58;;;;;;;;;10.50;10.00;;;;;7.59;100.00;100695.72;5018577;28;45451;-80
2021/11/26 02:19:25;;;;;;;;;10.25;9.25;;;;;7.64;100.00;100703.69;5018979;28;45286;-79
2021/11/26 02:21:52;;;;;;;;;12.50;8.75;;;;;7.54;100.00;100686.84;5018954;28;45439;-79
2021/11/26 02:24:19;;;;;;;;;14.00;8.00;;;;;7.62;100.00;100698.44;5019424;28;45202;-79
2021/11/26 02:26:47;;;;;;;;;13.00;9.00;;;;;7.61;100.00;100686.38;5018765;28;45390;-79
2021/11/26 02:29:14;;;;;;;;;15.00;11.25;;;;;7.66;100.00;100694.38;5025098;28;45475;-78
2021/11/26 02:31:41;;;;;;;;;7.50;4.75;;;;;7.55;100.00;100675.72;5020031;28;45320;-79
2021/11/26 02:34:07;;;;;;;;;13.75;9.25;;;;;7.61;100.00;100700.94;5019369;28;45720;-79
2021/11/26 02:36:33;;;;;;;;;9.00;7.25;;;;;7.57;100.00;100695.63;5018946;28;45407;-80
2021/11/26 02:38:58;;;;;;;;;8.50;8.00;;;;;7.42;100.00;100671.59;5000912;28;45482;-83
2021/11/26 02:41:24;;;;;;;;;8.75;8.25;;;;;7.51;100.00;100695.28;5000819;28;47148;-80
2021/11/26 02:43:51;;;;;;;;;7.75;6.75;;;;;7.48;100.00;100683.94;5018312;28;45922;-84
2021/11/26 02:46:20;;;;;;;;;11.00;9.25;;;;;7.48;100.00;100689.09;5018919;28;45392;-80
2021/11/26 02:48:46;;;;;;;;;10.00;7.75;;;;;7.43;100.00;100665.66;5018548;28;45332;-81
2021/11/26 02:51:13;;;;;;;;;9.00;7.00;;;;;7.48;100.00;100661.63;5018392;28;45392;-79
2021/11/26 02:53:39;;;;;;;;;9.25;9.25;;;;;7.42;100.00;100646.72;5018066;28;45889;-80
2021/11/26 02:56:05;;;;;;;;;8.75;7.25;;;;;7.31;100.00;100621.19;5018229;28;45447;-80
2021/11/26 02:58:31;;;;;;;;;8.75;7.00;;;;;7.43;100.00;100651.06;5018412;28;45359;-81
2021/11/26 03:00:59;;;;;;;;;11.25;8.25;;;;;7.27;100.00;100621.00;5017655;28;45899;-78
2021/11/26 03:03:25;;;;;;;;;7.00;7.00;;;;;7.41;100.00;100644.06;5017979;28;45871;-78
2021/11/26 03:05:57;;;;;;;;;10.00;8.75;;;;;7.43;100.00;100645.91;5018320;28;45280;-81
2021/11/26 03:08:22;;;;;;;;;8.25;7.75;;;;;7.31;100.00;100623.75;5018566;28;45470;-82
2021/11/26 03:10:48;;;;;;;;;9.50;7.75;;;;;7.24;100.00;100619.97;5021008;28;45710;-78
2021/11/26 03:13:14;;;;;;;;;9.00;8.25;;;;;7.18;100.00;100602.47;5024589;28;45186;-81
2021/11/26 03:15:42;;;;;;;;;9.25;9.00;;;;;7.26;100.00;100624.38;5016630;28;45304;-78
2021/11/26 03:18:09;;;;;;;;;9.00;9.00;;;;;7.18;100.00;100615.38;5018113;28;45760;-78
2021/11/26 03:20:35;;;;;;;;;10.25;10.25;;;;;7.32;100.00;100635.84;5017599;28;45481;-79
2021/11/26 03:23:00;;;;;;;;;10.50;8.50;;;;;7.19;100.00;100611.09;5017733;28;45502;-78
2021/11/26 03:25:26;;;;;;;;;9.00;8.00;;;;;7.16;100.00;100603.22;5018002;28;45379;-83
2021/11/26 03:27:52;;;;;;;;;12.25;9.00;;;;;7.18;100.00;100599.03;5017853;28;45446;-88
2021/11/26 03:30:20;;;;;;;;;8.00;7.50;;;;;7.19;100.00;100600.78;5017812;28;45270;-77
2021/11/26 03:32:46;;;;;;;;;8.50;6.00;;;;;7.23;100.00;100587.28;4999222;28;45741;-80
2021/11/26 03:35:14;;;;;;;;;10.50;10.50;;;;;7.32;100.00;100597.22;5017750;28;45322;-79
2021/11/26 03:37:40;;;;;;;;;10.50;8.75;;;;;7.32;100.00;100598.09;5017892;28;45625;-79
2021/11/26 03:40:09;;;;;;;;;13.25;10.00;;;;;7.16;100.00;100569.75;5017382;28;45371;-79
2021/11/26 03:42:35;;;;;;;;;15.25;12.25;;;;;7.28;100.00;100584.16;5017779;28;45877;-83
2021/11/26 03:45:04;;;;;;;;;13.00;11.50;;;;;7.21;100.00;100568.28;5017716;28;45426;-81
2021/11/26 03:47:29;;;;;;;;;16.00;14.00;;;;;7.21;100.00;100570.88;5018200;28;45365;-80
2021/11/26 03:49:55;;;;;;;;;16.75;12.25;;;;;7.24;100.00;100578.75;5017535;28;46153;-79
2021/11/26 03:52:20;;;;;;;;;11.75;11.75;;;;;7.20;100.00;100576.81;5024018;28;45457;-80
2021/11/26 03:54:46;;;;;;;;;11.50;10.75;;;;;7.25;100.00;100583.13;5005849;28;45287;-83
2021/11/26 03:57:13;;;;;;;;;14.50;11.50;;;;;7.19;100.00;100563.06;5021593;28;45570;-81
2021/11/26 03:59:38;;;;;;;;;10.75;9.25;;;;;7.25;100.00;100571.09;5026255;28;45963;-79
2021/11/26 04:02:05;;;;;;;;;15.00;13.00;;;;;7.25;100.00;100568.53;5024498;28;45234;-78
2021/11/26 04:04:31;;;;;;;;;16.50;9.75;;;;;7.12;100.00;100546.41;5002503;28;45354;-79
2021/11/26 04:06:57;;;;;;;;;10.50;9.50;;;;;7.19;100.00;100550.19;5018195;28;45315;-79
2021/11/26 04:09:23;;;;;;;;;11.00;9.25;;;;;7.19;100.00;100557.00;5017035;28;45659;-80
2021/11/26 04:11:49;;;;;;;;;12.25;10.00;;;;;7.17;100.00;100556.94;5016463;28;46043;-78
2021/11/26 04:14:15;;;;;;;;;15.00;11.00;;;;;7.13;100.00;100544.69;5017007;28;45327;-78
2021/11/26 04:16:41;;;;;;;;;17.75;11.25;;;;;7.17;100.00;100532.91;5017308;28;45257;-78
2021/11/26 04:19:06;;;;;;;;;14.00;11.75;;;;;7.06;100.00;100516.84;5016238;28;45440;-78
2021/11/26 04:21:33;;;;;;;;;13.50;11.00;;;;;7.19;100.00;100533.84;5016891;28;45752;-78
2021/11/26 04:24:01;;;;;;;;;11.75;11.00;;;;;7.18;100.00;100530.41;5016304;28;45220;-79
2021/11/26 04:26:27;;;;;;;;;14.00;13.00;;;;;7.18;100.00;100532.09;5016261;28;45308;-78
2021/11/26 04:28:53;;;;;;;;;19.75;15.25;;;;;7.08;100.00;100505.81;5017160;28;45214;-77
2021/11/26 04:31:19;;;;;;;;;15.00;14.00;;;;;7.18;100.00;100519.22;5020882;28;45534;-77
2021/11/26 04:33:44;;;;;;;;;17.00;16.00;;;;;7.16;100.00;100508.81;5021909;28;45400;-77
2021/11/26 04:36:10;;;;;;;;;22.25;11.25;;;;;7.18;100.00;100502.06;5017602;28;45363;-78
2021/11/26 04:38:35;;;;;;;;;15.50;14.25;;;;;7.14;100.00;100492.41;5016509;28;45403;-78
2021/11/26 04:41:01;;;;;;;;;13.50;12.50;;;;;7.13;100.00;100486.38;5016488;28;45395;-80
2021/11/26 04:43:27;;;;;;;;;14.50;11.75;;;;;7.18;100.00;100511.50;5016685;28;45327;-79
2021/11/26 04:45:53;;;;;;;;;15.25;15.00;;;;;7.16;100.00;100507.94;5016557;28;45616;-79
2021/11/26 04:48:20;;;;;;;;;17.50;13.25;;;;;7.11;100.00;100502.56;5016333;28;45441;-78
2021/11/26 04:50:46;;;;;;;;;16.00;14.00;;;;;6.99;100.00;100494.19;5016035;28;45820;-77
2021/11/26 04:53:12;;;;;;;;;14.00;13.50;;;;;6.96;100.00;100484.59;5016698;28;45348;-78
2021/11/26 04:55:38;;;;;;;;;15.50;15.00;;;;;7.05;100.00;100487.66;5017127;28;45329;-80
2021/11/26 04:58:03;;;;;;;;;15.50;14.00;;;;;7.13;100.00;100485.47;5015949;28;45456;-80
2021/11/26 05:00:29;;;;;;;;;15.25;11.50;;;;;7.18;100.00;100496.91;5016702;28;45493;-79
2021/11/26 05:02:56;;;;;;;;;18.50;15.50;;;;;7.18;100.00;100494.34;5017046;28;45337;-79
2021/11/26 05:05:23;;;;;;;;;18.00;16.00;;;;;7.04;100.00;100460.16;5017451;28;45374;-78
2021/11/26 05:07:48;;;;;;;;;15.75;11.50;;;;;7.15;100.00;100483.88;5016638;28;45585;-81
2021/11/26 05:10:16;;;;;;;;;15.75;12.25;;;;;7.03;100.00;100455.81;5016817;28;45479;-79
2021/11/26 05:12:47;;;;;;;;;15.50;13.50;;;;;7.11;100.00;100461.38;5020929;28;45321;-79
2021/11/26 05:15:15;;;;;;;;;12.50;10.50;;;;;7.17;100.00;100463.38;5023147;28;45733;-80
2021/11/26 05:17:41;;;;;;;;;14.75;12.25;;;;;7.07;100.00;100452.56;5016490;28;45178;-79
2021/11/26 05:20:07;;;;;;;;;11.50;10.50;;;;;7.04;100.00;100436.09;5016183;28;45321;-77
2021/11/26 05:22:33;;;;;;;;;15.75;14.50;;;;;7.12;100.00;100445.13;5016013;28;45280;-79
2021/11/26 05:24:59;;;;;;;;;16.25;13.00;;;;;7.02;100.00;100432.56;5015833;28;45495;-78
2021/11/26 05:27:24;;;;;;;;;15.00;10.00;;;;;7.04;100.00;100433.50;5015731;28;45336;-77
2021/11/26 05:29:50;;;;;;;;;16.75;14.00;;;;;7.10;100.00;100429.56;5015877;28;45331;-85
2021/11/26 05:32:16;;;;;;;;;18.75;13.00;;;;;7.16;100.00;100420.41;5016713;28;45293;-79
2021/11/26 05:34:41;;;;;;;;;14.25;9.50;;;;;7.10;100.00;100405.53;5016331;28;45318;-79
2021/11/26 05:37:07;;;;;;;;;16.25;15.00;;;;;7.18;100.00;100404.25;5015360;28;45948;-78
2021/11/26 05:39:33;;;;;;;;;17.50;13.00;;;;;7.25;100.00;100426.03;5018664;28;45911;-77
2021/11/26 05:41:59;;;;;;;;;12.50;11.00;;;;;7.25;100.00;100414.03;5019063;28;45220;-78
2021/11/26 05:44:24;;;;;;;;;14.00;11.25;;;;;7.18;100.00;100396.50;5019362;28;45737;-77
2021/11/26 05:46:53;;;;;;;;;12.00;11.00;;;;;7.28;100.00;100400.47;5019344;28;45362;-75
2021/11/26 05:49:19;;;;;;;;;14.00;11.25;;;;;7.36;100.00;100393.09;5019242;28;45437;-77
2021/11/26 05:51:45;;;;;;;;;14.75;10.75;;;;;7.38;100.00;100396.66;5020236;28;45433;-78
2021/11/26 05:54:10;;;;;;;;;12.25;11.00;;;;;7.26;100.00;100372.03;5021898;28;45427;-77
2021/11/26 05:56:36;;;;;;;;;15.75;11.50;;;;;7.31;100.00;100382.56;5021788;28;45439;-79
2021/11/26 05:59:01;;;;;;;;;17.25;12.25;;;;;7.31;100.00;100376.56;5022211;28;45529;-80
2021/11/26 06:01:27;;;;;;;;;16.50;13.75;;;;;7.31;100.00;100374.84;5020131;28;45396;-81
2021/11/26 06:03:53;;;;;;;;;19.75;13.75;;;;;7.31;100.00;100363.66;5019451;28;45627;-83
2021/11/26 06:06:18;;;;;;;;;13.25;12.75;;;;;7.38;100.00;100363.16;5018972;28;45426;-81
2021/11/26 06:08:44;;;;;;;;;14.50;13.25;;;;;7.27;100.00;100337.75;5019168;28;45357;-81
2021/11/26 06:11:09;;;;;;;;;19.75;16.50;;;;;7.38;100.00;100366.66;5019610;28;45257;-82
2021/11/26 06:13:35;;;;;;;;;13.00;10.25;;;;;7.16;100.00;100326.03;5019827;28;45553;-79
2021/11/26 06:16:01;;;;;;;;;19.25;11.00;;;;;7.39;100.00;100363.25;5025985;28;45292;-76
2021/11/26 06:18:26;;;;;;;;;14.25;11.00;;;;;7.25;100.00;100339.38;5028837;28;44753;-79
2021/11/26 06:20:52;;;;;;;;;18.75;13.25;;;;;7.27;100.00;100337.75;5021161;28;45320;-77
2021/11/26 06:23:18;;;;;;;;;13.00;10.25;;;;;7.38;100.00;100346.03;5019643;28;45320;-78
2021/11/26 06:25:43;;;;;;;;;16.25;13.50;;;;;7.42;100.00;100336.78;5001354;28;47673;-78
2021/11/26 06:28:09;;;;;;;;;13.25;9.75;;;;;7.48;100.00;100342.22;5019266;28;45408;-81
2021/11/26 06:30:35;;;;;;;;;16.25;14.00;;;;;7.49;100.00;100333.69;5000342;28;45493;-78
2021/11/26 06:33:00;;;;;;;;;15.00;11.50;;;;;7.56;100.00;100330.59;5018686;28;45402;-78
2021/11/26 06:35:26;;;;;;;;;16.00;12.50;;;;;7.59;100.00;100335.03;5020506;28;45387;-78
2021/11/26 06:37:54;;;;;;;;;12.00;11.00;;;;;7.58;100.00;100330.69;5019468;28;45356;-78
2021/11/26 06:40:21;;;;;;;;;12.25;9.00;;;;;7.54;100.00;100308.16;5019278;28;45552;-79
2021/11/26 06:42:47;;;;;;;;;13.00;11.50;;;;;7.64;100.00;100323.25;5019318;28;45465;-80
2021/11/26 06:45:13;;;;;;;;;11.00;9.25;;;;;7.63;100.00;100321.47;5018567;28;46135;-80
2021/11/26 06:47:39;;;;;;;;;10.50;8.50;;;;;7.56;100.00;100296.22;5000830;28;45548;-87
2021/11/26 06:50:07;;;;;;;;;14.00;13.00;;;;;7.57;100.00;100301.44;5017634;28;45439;-79
2021/11/26 06:52:33;;;;;;;;;11.00;9.75;;;;;7.39;100.00;100279.94;5017996;28;46031;-79
2021/11/26 06:55:00;;;;;;;;;10.25;9.75;;;;;7.48;100.00;100306.16;5017239;28;46164;-74
2021/11/26 06:57:26;;;;;;;;;12.00;10.50;;;;;7.40;100.00;100295.47;5015803;28;45504;-72
2021/11/26 06:59:53;;;;;;;;;5.25;5.25;;;;;7.32;100.00;100272.75;5017230;28;45324;-81
2021/11/26 07:02:20;;;;;;;;;14.00;10.00;;;;;7.35;100.00;100284.06;5023995;28;45365;-79
2021/11/26 07:04:46;;;;;;;;;11.00;9.00;;;;;7.34;100.00;100277.16;5018545;28;45352;-80
2021/11/26 07:07:12;;;;;;;;;8.00;8.00;;;;;7.30;100.00;100267.50;5018207;28;45892;-74
2021/11/26 07:09:38;;;;;;;;;11.75;10.25;;;;;7.18;100.00;100260.06;5018235;28;45396;-85
2021/11/26 07:12:09;;;;;;;;;16.00;11.50;;;;;6.94;100.00;100234.88;4999035;28;45550;-77
2021/11/26 07:14:39;;;;;;;;;13.00;10.00;;;;;7.12;100.00;100254.63;5018253;28;45428;-74
2021/11/26 07:17:05;;;;;;;;;14.00;9.25;;;;;7.15;100.00;100262.47;5017214;28;45492;-77
2021/11/26 07:19:30;;;;;;;;;10.00;9.50;;;;;7.11;100.00;100258.88;5018617;28;45399;-75
2021/11/26 07:21:56;;;;;;;;;11.00;8.75;;;;;6.87;100.00;100219.94;5017714;28;45604;-82
2021/11/26 07:24:22;;;;;;;;;9.75;8.25;;;;;6.94;100.00;100231.41;5016925;28;46240;-78
2021/11/26 07:26:48;;;;;;;;;13.50;9.75;;;;;7.02;100.00;100245.56;5015733;28;45396;-80
2021/11/26 07:29:13;;;;;;;;;12.00;10.00;;;;;7.00;100.00;100230.84;5016817;28;45292;-77
2021/11/26 07:31:39;;;;;;;;;12.00;10.25;;;;;6.94;100.00;100216.84;5017272;28;45419;-78
2021/11/26 07:34:05;;;;;;;;;10.25;9.50;;;;;7.03;100.00;100216.44;5016966;28;45784;-77
2021/11/26 07:36:30;;;;;;;;;13.75;11.50;;;;;7.12;100.00;100228.88;4998620;28;45358;-77
2021/11/26 07:38:56;;;;;;;;;11.75;9.00;;;;;7.19;100.00;100224.88;5016337;28;45363;-78
2021/11/26 07:41:22;;;;;;;;;14.75;10.00;;;;;7.25;100.00;100220.06;5016499;28;45312;-79
2021/11/26 07:43:48;;;;;;;;;11.00;10.25;;;;;7.30;100.00;100218.56;5015344;28;46268;-78
2021/11/26 07:46:14;;;;;;;;;10.25;9.00;;;;;7.32;100.00;100201.50;5016239;28;45389;-79
2021/11/26 07:48:40;;;;;;;;;9.00;9.00;;;;;7.34;100.00;100199.91;4998691;28;45393;-81
2021/11/26 07:51:07;;;;;;;;;10.25;10.25;;;;;7.30;100.00;100204.81;5016604;28;45511;-87
2021/11/26 07:53:33;;;;;;;;;15.00;9.00;;;;;7.35;100.00;100211.97;5018600;28;45234;-82
2021/11/26 07:56:00;;;;;;;;;14.75;13.00;;;;;7.29;100.00;100203.94;5023336;28;45270;-82
2021/11/26 07:58:26;;;;;;;;;13.50;11.00;;;;;7.34;100.00;100211.91;5019525;28;45440;-82
2021/11/26 08:00:52;;;;;;;;;10.50;9.25;;;;;7.32;100.00;100205.78;4999129;28;45536;-80
2021/11/26 08:03:18;;;;;;;;;13.00;11.25;;;;;7.32;100.00;100188.63;5016858;28;45976;-80
2021/11/26 08:05:44;;;;;;;;;10.00;9.50;;;;;7.32;100.00;100177.47;5016309;28;45419;-81
2021/11/26 08:08:10;;;;;;;;;12.75;9.25;;;;;7.28;100.00;100181.59;5017201;28;45238;-80
2021/11/26 08:10:39;;;;;;;;;8.75;8.00;;;;;7.20;100.00;100176.06;5016956;28;45304;-81
2021/11/26 08:13:05;;;;;;;;;12.00;8.00;;;;;7.16;100.00;100162.97;5014867;28;46188;-80
2021/11/26 08:15:32;;;;;;;;;9.25;8.00;;;;;7.19;100.00;100147.66;5016173;28;45427;-83
2021/11/26 08:17:59;;;;;;;;;10.00;8.50;;;;;7.13;100.00;100154.28;5032085;28;45751;-84
2021/11/26 08:20:25;;;;;;;;;6.75;6.75;;;;;7.19;100.00;100160.53;5015911;28;45502;-82
2021/11/26 08:22:51;;;;;;;;;8.00;7.75;;;;;7.13;100.00;100159.44;5014339;28;46103;-85
2021/11/26 08:25:19;;;;;;;;;8.75;8.00;;;;;7.11;100.00;100155.03;5012795;28;45473;-84
2021/11/26 08:27:45;;;;;;;;;4.75;4.75;;;;;7.08;100.00;100142.88;5027608;28;45458;-81
2021/11/26 08:30:11;;;;;;;;;11.00;7.50;;;;;7.08;100.00;100145.44;5023567;28;45323;-78
2021/11/26 08:32:37;;;;;;;;;8.25;6.75;;;;;7.06;100.00;100129.06;5022435;28;46075;-76
2021/11/26 08:35:04;;;;;;;;;9.00;8.25;;;;;7.10;100.00;100138.69;5016547;28;45343;-77
2021/11/26 08:37:29;;;;;;;;;6.25;6.25;;;;;7.17;100.00;100150.16;5017838;28;45538;-77
2021/11/26 08:39:56;;;;;;;;;9.50;9.50;;;;;7.10;100.00;100119.81;5034657;28;45311;-77
2021/11/26 08:42:22;;;;;;;;;8.25;8.25;;;;;7.25;100.00;100140.25;5030998;28;45411;-76
2021/11/26 08:44:47;;;;;;;;;7.50;6.75;;;;;7.25;100.00;100141.09;4997456;28;45973;-80
2021/11/26 08:47:13;;;;;;;;;6.25;6.00;;;;;7.19;100.00;100129.63;5015050;28;45344;-77
2021/11/26 08:49:39;;;;;;;;;9.00;6.75;;;;;7.23;100.00;100131.56;5014237;28;45441;-80
2021/11/26 08:52:06;;;;;;;;;7.75;7.50;;;;;7.12;100.00;100106.19;5015811;28;46069;-80
2021/11/26 08:54:34;;;;;;;;;8.00;7.00;;;;;7.25;100.00;100130.81;5002667;28;45282;-80
2021/11/26 08:56:59;;;;;;;;;7.50;6.75;;;;;7.30;100.00;100132.72;5035597;28;45224;-82
2021/11/26 08:59:26;;;;;;;;;7.50;5.25;;;;;7.36;100.00;100139.06;5036688;28;45500;-83
2021/11/26 09:01:53;;;;;;;;;7.50;6.75;;;;;7.30;100.00;100117.28;5020184;28;46501;-82
2021/11/26 09:04:23;;;;;;;;;12.00;7.50;;;;;7.34;100.00;100126.94;5015260;28;45456;-79
2021/11/26 09:06:51;;;;;;;;;8.00;7.00;;;;;7.34;100.00;100119.19;5030783;28;45338;-78
2021/11/26 09:09:18;;;;;;;;;10.00;8.75;;;;;7.29;100.00;100103.50;5016068;28;45300;-77
2021/11/26 09:11:43;;;;;;;;;7.50;6.50;;;;;7.35;100.00;100097.75;5015489;28;45880;-78
2021/11/26 09:14:09;;;;;;;;;9.75;9.75;;;;;7.45;100.00;100089.66;5019312;28;45387;-81
2021/11/26 09:16:35;;;;;;;;;9.00;7.75;;;;;7.51;100.00;100068.44;5023830;28;45297;-78
2021/11/26 09:19:02;;;;;;;;;6.75;6.50;;;;;7.59;100.00;100077.41;5025689;28;45328;-78
2021/11/26 09:21:28;;;;;;;;;6.75;6.00;;;;;7.63;100.00;100063.84;5019819;28;46000;-82
2021/11/26 09:23:54;;;;;;;;;3.00;3.00;;;;;7.65;100.00;100058.78;5019698;28;45258;-84
2021/11/26 09:26:20;;;;;;;;;5.75;5.00;;;;;7.60;100.00;100058.56;5019050;28;45316;-81
2021/11/26 09:28:46;;;;;;;;;3.75;3.00;;;;;7.63;100.00;100048.38;5019897;28;45544;-81
2021/11/26 09:31:12;;;;;;;;;6.50;4.75;;;;;7.70;100.00;100041.81;5020021;28;45360;-79
2021/11/26 09:33:38;;;;;;;;;9.50;6.75;;;;;7.71;100.00;100030.69;5019577;28;45760;-80
2021/11/26 09:36:06;;;;;;;;;3.25;3.25;;;;;7.67;100.00;100016.78;5018746;28;45313;-80
2021/11/26 09:38:33;;;;;;;;;6.75;2.75;;;;;7.77;100.00;100024.91;5019641;28;45407;-84
2021/11/26 09:41:00;;;;;;;;;5.50;4.25;;;;;7.76;100.00;100011.16;5018690;28;46011;-79
2021/11/26 09:43:27;;;;;;;;;6.00;4.00;;;;;7.86;100.00;100010.75;5019332;28;45954;-78
2021/11/26 09:45:53;;;;;;;;;5.00;2.00;;;;;7.92;100.00;100001.50;5017732;28;45318;-76
2021/11/26 09:48:19;;;;;;;;;7.75;4.00;;;;;7.95;100.00;99989.63;5019118;28;45211;-82
2021/11/26 09:50:45;;;;;;;;;4.00;3.00;;;;;7.78;100.00;99957.97;5019180;28;45526;-78
2021/11/26 09:53:22;;;;;;;;;3.25;3.25;;;;;7.90;100.00;99955.91;5019056;28;45386;-81
2021/11/26 09:55:51;;;;;;;;;3.25;3.00;;;;;8.03;100.00;99967.63;5018347;28;45873;-80
2021/11/26 09:58:18;;;;;;;;;2.25;2.00;;;;;7.99;100.00;99970.03;5023455;28;45226;-82
2021/11/26 10:00:44;;;;;;;;;3.75;3.00;;;;;7.99;100.00;99970.03;5023263;28;45972;-75
2021/11/26 10:03:11;;;;;;;;;3.00;2.00;;;;;7.96;100.00;99969.91;5022137;28;45519;-80
2021/11/26 10:05:37;;;;;;;;;4.50;3.00;;;;;7.93;100.00;99955.19;5018630;28;46894;-77
2021/11/26 10:08:04;;;;;;;;;3.00;2.25;;;;;7.99;100.00;99968.31;5018023;28;45483;-74
2021/11/26 10:10:35;;;;;;;;;2.00;2.00;;;;;7.92;100.00;99930.22;5027007;28;46092;-78
2021/11/26 10:13:05;;;;;;;;;1.50;1.50;;;;;8.02;100.00;99944.34;5032983;28;45751;-77
2021/11/26 10:15:37;;;;;;;;;3.00;3.00;;;;;8.00;100.00;99931.41;5037022;28;45526;-74
2021/11/26 10:18:17;;;;;;;;;3.00;3.00;;;;;8.08;100.00;99923.09;5018321;28;45399;-74
2021/11/26 10:21:01;;;;;;;;;2.00;2.00;;;;;8.12;100.00;99909.53;5018229;28;46255;-74
2021/11/26 10:23:30;;;;;;;;;2.75;1.75;;;;;8.14;100.00;99905.31;5017773;28;45376;-74
2021/11/26 10:26:10;;;;;;;;;2.50;1.50;;;;;8.19;100.00;99889.22;5016070;28;45671;-74
2021/11/26 10:28:41;;;;;;;;;3.75;3.00;;;;;8.19;100.00;99898.63;5017507;28;45515;-75
2021/11/26 10:31:07;;;;;;;;;6.25;6.25;;;;;8.17;100.00;99882.22;5014705;28;46088;-81
2021/11/26 10:33:34;;;;;;;;;17.75;15.50;;;;;8.26;100.00;99874.84;5018056;28;45852;-73
2021/11/26 10:36:02;;;;;;;;;8.00;3.50;;;;;8.35;100.00;99872.63;5016750;28;45377;-81
2021/11/26 10:38:34;;;;;;;;;3.50;2.00;;;;;8.42;100.00;99870.28;5023675;28;45666;-82
2021/11/26 10:41:06;;;;;;;;;2.00;2.00;;;;;8.51;100.00;99883.56;5030586;28;45432;-74
2021/11/26 10:43:39;;;;;;;;;3.00;3.00;;;;;8.54;100.00;99887.94;5019802;28;45941;-72
2021/11/26 10:59:14;;;;;;;;;4.00;4.00;;;;;8.39;100.00;99821.16;5018452;28;45385;-75
2021/11/26 11:01:44;;;;;;;;;4.00;3.00;;;;;8.34;100.00;99813.25;5018202;28;45305;-85
2021/11/26 11:04:15;;;;;;;;;3.25;3.00;;;;;8.35;100.00;99805.59;5018208;28;45816;-77
2021/11/26 11:06:42;;;;;;;;;3.00;3.00;;;;;8.35;100.00;99813.31;5017415;28;45466;-81
2021/11/26 11:09:11;;;;;;;;;2.50;2.00;;;;;8.34;100.00;99802.94;5017288;28;45520;-83
2021/11/26 11:11:49;;;;;;;;;3.75;3.75;;;;;8.33;100.00;99781.44;5017133;28;45383;-83
2021/11/26 11:14:21;;;;;;;;;4.75;4.00;;;;;8.26;100.00;99758.78;5017772;28;45260;-83
2021/11/26 11:16:52;;;;;;;;;4.25;2.00;;;;;8.33;100.00;99749.59;5017731;28;45997;-84
2021/11/26 11:19:20;;;;;;;;;4.25;2.00;;;;;8.35;100.00;99750.53;5017603;28;45197;-79
2021/11/26 11:21:47;;;;;;;;;7.00;4.50;;;;;8.29;100.00;99740.00;5016128;28;45423;-79
2021/11/26 11:24:16;;;;;;;;;4.00;3.50;;;;;8.27;100.00;99723.59;5018497;28;46047;-85
2021/11/26 11:26:46;;;;;;;;;3.00;3.00;;;;;8.28;100.00;99721.06;5006793;28;45549;-79
2021/11/26 11:29:14;;;;;;;;;1.00;1.00;;;;;8.21;100.00;99699.31;5013468;28;45807;-81
2021/11/26 11:31:42;;;;;;;;;3.25;3.00;;;;;8.34;100.00;99717.81;5019689;28;46267;-84